Latest Weather Observations for Hillarys Point Boat Harbour

IDW60801

Issued at 8:05 pm WST Thursday 17 April 2014 (issued every 30 minutes, with the page automatically refreshed every 10 minutes)

About weather observations | Map of weather stations | Latest weather observations for WA | Other Formats
Station Details ID: 009265 Name: HILLARYS BOAT HARBOUR NTC AWS Lat: -31.83 Lon: 115.74 Height: 0.0 m
Data from the previous 72 hours. | See also: Recent months for locations in Western Australia
Date/Time
WST
Temp
°C
App
Temp
°C
Dew
Point
Rel
Hum
%
Delta-T
°C
Wind Press
QNH
hPa
Press
MSL
hPa
Rain
since 9 am
mm
Dir
 
Spd
km/h
Gust
km/h
Spd
kts
Gust
kts
17/08:00pm 21.0 - - - - S 9 20 5 11 1021.8 1021.8 -
17/07:30pm 21.1 - - - - S 9 24 5 13 1021.6 - -
17/07:00pm 21.1 - - - - S 9 19 5 10 1021.2 1021.2 -
17/06:30pm 21.4 - - - - S 7 17 4 9 1020.9 - -
17/06:00pm 21.4 - - - - SSW 7 19 4 10 1020.6 1020.6 -
17/05:30pm 21.5 - - - - SSW 9 19 5 10 1020.4 - -
17/05:00pm 21.4 - - - - SSW 9 22 5 12 1020.2 1020.2 -
17/04:30pm 21.4 - - - - SSW 13 28 7 15 1020.1 - -
17/04:00pm 21.5 - - - - SSW 13 24 7 13 1020.0 1020.0 -
17/03:30pm 21.9 - - - - SSW 13 20 7 11 1020.2 - -
17/03:00pm 22.2 - - - - SSW 13 20 7 11 1020.2 1020.2 -
17/02:30pm 22.2 - - - - SSW 13 20 7 11 1020.2 - -
17/02:00pm 22.1 - - - - SSW 11 20 6 11 1020.3 1020.3 -
17/01:30pm 22.3 - - - - SSW 11 19 6 10 1020.3 - -
17/01:00pm 22.3 - - - - SSW 6 13 3 7 1020.7 1020.7 -
17/12:30pm 22.2 - - - - SW 7 13 4 7 1021.3 - -
17/12:00pm 21.9 - - - - SSW 6 13 3 7 1021.5 1021.5 -
17/11:30am 21.8 - - - - SW 7 11 4 6 1021.8 - -
17/11:00am 21.6 - - - - S 4 7 2 4 1022.0 1022.0 -
17/10:30am 21.3 - - - - S 4 9 2 5 1022.1 - -
17/10:00am 20.6 - - - - ENE 7 13 4 7 1022.1 1022.1 -
17/09:30am 19.8 - - - - ENE 7 13 4 7 1022.2 - -
17/09:00am 18.6 - - - - ENE 9 15 5 8 1022.1 1022.1 -
17/08:30am 17.5 - - - - ENE 11 17 6 9 1022.0 - -
17/08:00am 16.5 - - - - ENE 9 15 5 8 1021.8 1021.8 -
17/07:30am 15.7 - - - - ENE 11 15 6 8 1021.4 - -
17/07:00am 15.2 - - - - ENE 11 15 6 8 1021.1 1021.1 -
17/06:30am 14.9 - - - - ENE 11 15 6 8 1020.7 - -
17/06:00am 14.7 - - - - ENE 11 15 6 8 1020.4 1020.4 -
17/05:30am 15.1 - - - - ENE 9 15 5 8 1020.3 - -
17/05:00am 15.1 - - - - ENE 7 11 4 6 1020.0 1020.0 -
17/04:30am 15.2 - - - - ENE 7 13 4 7 1019.7 - -
17/04:00am 16.0 - - - - ENE 6 9 3 5 1019.7 1019.7 -
17/03:30am 16.8 - - - - E 4 7 2 4 1019.7 - -
17/03:00am 16.7 - - - - E 4 9 2 5 1019.6 1019.6 -
17/02:30am 16.9 - - - - E 2 6 1 3 1019.8 - -
17/02:00am 16.8 - - - - E 4 9 2 5 1019.9 1019.9 -
17/01:30am 17.0 - - - - E 4 7 2 4 1019.8 - -
17/01:00am 17.4 - - - - ESE 2 9 1 5 1019.8 1019.8 -
17/12:30am 17.7 - - - - SE 2 7 1 4 1019.7 - -
17/12:00am 18.4 - - - - SSE 7 13 4 7 1019.7 1019.7 -
 
Date/Time
WST
Temp
°C
App
Temp
°C
Dew
Point
Rel
Hum
%
Delta-T
°C
Wind Press
QNH
hPa
Press
MSL
hPa
Rain
since 9 am
mm
Dir
 
Spd
km/h
Gust
km/h
Spd
kts
Gust
kts
16/11:30pm 18.4 - - - - SSE 9 17 5 9 1019.8 - -
16/11:00pm 18.6 - - - - SSE 7 15 4 8 1020.0 1020.0 -
16/10:30pm 18.7 - - - - SSE 7 13 4 7 1020.1 - -
16/10:00pm 19.0 - - - - SSE 9 15 5 8 1020.1 1020.1 -
16/09:30pm 19.1 - - - - SSE 7 13 4 7 1020.1 - -
16/09:00pm 19.8 - - - - S 7 19 4 10 1019.9 1019.9 -
16/08:30pm 20.2 - - - - S 6 17 3 9 1019.9 - -
16/08:00pm 20.4 - - - - SSW 7 19 4 10 1019.8 1019.8 -
16/07:30pm 20.3 - - - - S 6 19 3 10 1019.6 - -
16/07:00pm 20.3 - - - - SSW 9 20 5 11 1019.6 1019.6 -
16/06:30pm 20.3 - - - - SSW 9 19 5 10 1019.5 - -
16/06:00pm 20.3 - - - - SSW 9 20 5 11 1019.4 1019.4 -
16/05:30pm 20.3 - - - - SSW 13 26 7 14 1019.5 - -
16/05:00pm 20.4 - - - - SSW 13 28 7 15 1019.4 1019.4 -
16/04:30pm 20.6 - - - - SSW 9 20 5 11 1019.5 - -
16/04:00pm 20.8 - - - - SSW 13 26 7 14 1019.6 1019.6 -
16/03:30pm 20.7 - - - - SSW 13 24 7 13 1019.7 - -
16/03:00pm 20.9 - - - - SSW 13 26 7 14 1019.8 1019.8 -
16/02:30pm 21.0 - - - - SSW 13 24 7 13 1019.9 - -
16/02:00pm 21.0 - - - - SW 15 22 8 12 1020.0 1020.0 -
16/01:30pm 21.0 - - - - SW 13 22 7 12 1020.2 - -
16/01:00pm 21.0 - - - - SW 15 20 8 11 1020.4 1020.4 -
16/12:30pm 21.1 - - - - SW 11 15 6 8 1020.8 - -
16/12:00pm 20.9 - - - - SW 11 15 6 8 1021.3 1021.3 -
16/11:30am 20.8 - - - - SW 9 13 5 7 1021.6 - -
16/11:00am 21.1 - - - - SSW 4 7 2 4 1022.1 1022.1 -
16/10:30am 21.0 - - - - E 4 9 2 5 1022.3 - -
16/10:00am 20.4 - - - - E 4 9 2 5 1022.7 1022.7 -
16/09:30am 19.7 - - - - E 9 17 5 9 1022.7 - -
16/09:00am 19.2 - - - - E 11 19 6 10 1022.7 1022.7 -
16/08:30am 18.4 - - - - ENE 15 22 8 12 1022.8 - -
16/08:00am 18.2 - - - - ENE 9 17 5 9 1022.7 1022.7 -
16/07:30am 17.7 - - - - E 11 19 6 10 1022.4 - -
16/07:00am 17.8 - - - - E 7 13 4 7 1021.9 1021.9 -
16/06:30am 17.8 - - - - E 2 7 1 4 1021.7 - -
16/06:00am 17.9 - - - - E 2 7 1 4 1021.6 1021.6 -
16/05:30am 18.3 - - - - SE 2 9 1 5 1021.6 - -
16/05:00am 18.5 - - - - ESE 4 9 2 5 1021.3 1021.3 -
16/04:30am 19.4 - - - - S 7 20 4 11 1021.1 - -
16/04:00am 19.4 - - - - S 7 15 4 8 1021.0 1021.0 -
16/03:30am 19.6 - - - - S 6 17 3 9 1021.0 - -
16/03:00am 19.6 - - - - S 9 20 5 11 1020.9 1020.9 -
16/02:30am 19.0 - - - - S 9 19 5 10 1021.2 - -
16/02:00am 19.4 - - - - S 7 24 4 13 1021.4 1021.4 -
16/01:30am 19.7 - - - - S 6 13 3 7 1021.4 - -
16/01:00am 20.6 - - - - S 6 15 3 8 1021.3 1021.3 -
16/12:30am 20.9 - - - - SSW 6 17 3 9 1021.3 - -
16/12:00am 21.1 - - - - ESE 2 7 1 4 1021.4 1021.4 -
 
Date/Time
WST
Temp
°C
App
Temp
°C
Dew
Point
Rel
Hum
%
Delta-T
°C
Wind Press
QNH
hPa
Press
MSL
hPa
Rain
since 9 am
mm
Dir
 
Spd
km/h
Gust
km/h
Spd
kts
Gust
kts
15/11:30pm 21.6 - - - - S 4 11 2 6 1021.5 - -
15/11:00pm 21.6 - - - - SSW 6 13 3 7 1021.9 1021.9 -
15/10:30pm 21.9 - - - - SSW 6 17 3 9 1022.0 - -
15/10:00pm 21.9 - - - - SSW 6 11 3 6 1022.1 1022.1 -
15/09:30pm 21.7 - - - - SSW 4 9 2 5 1022.2 - -
15/09:00pm 21.7 - - - - SSW 7 15 4 8 1022.2 1022.2 -
15/08:30pm 21.8 - - - - SSW 7 15 4 8 1022.2 - -
15/08:00pm 21.8 - - - - SSW 9 17 5 9 1022.1 1022.1 -
15/07:30pm 21.8 - - - - SSW 7 15 4 8 1021.9 - -
15/07:00pm 21.8 - - - - SW 7 17 4 9 1021.8 1021.8 -
15/06:30pm 21.8 - - - - SW 11 19 6 10 1021.5 - -
15/06:00pm 21.8 - - - - SSW 7 15 4 8 1021.3 1021.3 -
15/05:30pm 21.7 - - - - SSW 11 19 6 10 1021.2 - -
15/05:00pm 21.8 - - - - SSW 11 20 6 11 1021.1 1021.1 -
15/04:30pm 21.8 - - - - SSW 11 19 6 10 1021.0 - -
15/04:00pm 22.0 - - - - SW 11 20 6 11 1020.9 1020.9 -
15/03:30pm 22.2 - - - - SW 9 17 5 9 1020.7 - -
15/03:00pm 22.5 - - - - SSW 9 17 5 9 1020.8 1020.8 -
15/02:30pm 22.3 - - - - SW 13 20 7 11 1020.7 - -
15/02:00pm 22.2 - - - - SW 11 19 6 10 1020.7 1020.7 -
15/01:30pm 22.2 - - - - SW 13 22 7 12 1020.7 - -
15/01:00pm 22.2 - - - - SW 19 26 10 14 1020.9 1020.9 -
15/12:30pm 21.8 - - - - WSW 19 26 10 14 1021.1 - -
15/12:00pm 21.8 - - - - WSW 17 22 9 12 1021.2 1021.2 -
15/11:30am 21.9 - - - - SW 13 19 7 10 1021.1 - -
15/11:00am 21.9 - - - - WSW 13 17 7 9 1021.1 1021.1 -
15/10:30am 21.8 - - - - WSW 9 11 5 6 1021.0 - -
15/10:00am 21.6 - - - - WSW 7 11 4 6 1021.0 1021.0 -
15/09:30am 21.7 - - - - SW 9 15 5 8 1020.9 - -
15/09:00am 21.8 - - - - SW 7 13 4 7 1021.0 1021.0 -
15/08:30am 21.6 - - - - SW 7 13 4 7 1020.7 - -
15/08:00am 21.6 - - - - SW 7 11 4 6 1020.5 1020.5 -
15/07:30am 21.6 - - - - SW 7 13 4 7 1020.3 - -
15/07:00am 21.6 - - - - WSW 9 11 5 6 1019.9 1019.9 -
15/06:30am 21.5 - - - - SW 7 11 4 6 1019.6 - -
15/06:00am 21.6 - - - - SW 7 11 4 6 1019.3 1019.3 -
15/05:30am 21.6 - - - - SW 9 15 5 8 1019.1 - -
15/05:00am 21.5 - - - - SSW 6 11 3 6 1018.9 1018.9 -
15/04:30am 21.6 - - - - SW 9 17 5 9 1018.9 - -
15/04:00am 21.7 - - - - SW 11 17 6 9 1019.1 1019.1 -
15/03:30am 21.8 - - - - WSW 11 19 6 10 1019.0 - -
15/03:00am 21.9 - - - - SW 13 17 7 9 1019.1 1019.1 -
15/02:30am 21.9 - - - - WSW 11 17 6 9 1019.2 - -
15/02:00am 21.9 - - - - SW 7 11 4 6 1019.3 1019.3 -
15/01:30am 21.9 - - - - SW 9 11 5 6 1019.2 - -
15/01:00am 21.8 - - - - SW 7 11 4 6 1019.2 1019.2 -
15/12:30am 21.8 - - - - WSW 7 11 4 6 1019.1 - -
15/12:00am 21.9 - - - - WSW 7 11 4 6 1019.0 1019.0 -
 
Date/Time
WST
Temp
°C
App
Temp
°C
Dew
Point
Rel
Hum
%
Delta-T
°C
Wind Press
QNH
hPa
Press
MSL
hPa
Rain
since 9 am
mm
Dir
 
Spd
km/h
Gust
km/h
Spd
kts
Gust
kts
14/11:30pm 21.9 - - - - SW 7 11 4 6 1019.1 - -
14/11:00pm 22.0 - - - - SW 7 11 4 6 1019.4 1019.4 -
14/10:30pm 22.1 - - - - SW 6 9 3 5 1019.6 - -
14/10:00pm 22.0 - - - - S 2 7 1 4 1019.6 1019.6 -
14/09:30pm 22.1 - - - - SSW 4 9 2 5 1019.7 - -
14/09:00pm 22.3 - - - - SSW 6 13 3 7 1019.7 1019.7 -
14/08:30pm 22.4 - - - - SSW 7 15 4 8 1019.6 - -

Other Formats:

Comma delimited format used in spreadsheet applications
http://www.bom.gov.au/fwo/IDW60801/IDW60801.95605.axf

JavaScript Object Notation format (JSON) in row-major order
http://www.bom.gov.au/fwo/IDW60801/IDW60801.95605.json